createdAt,value
2018-07-03T00:00:50.182Z,1.4
2018-07-03T00:02:50.290Z,1.4
2018-07-03T00:04:49.556Z,1.4
2018-07-03T00:06:49.923Z,1.4
2018-07-03T00:08:50.025Z,1.3
2018-07-03T00:10:50.154Z,1.6
2018-07-03T00:12:50.302Z,1.4
2018-07-03T00:14:50.405Z,1.2
2018-07-03T00:16:49.603Z,1.5
2018-07-03T00:18:50.488Z,1.5
2018-07-03T00:20:49.573Z,1.2
2018-07-03T00:22:49.615Z,1.2
2018-07-03T00:24:49.731Z,1.2
2018-07-03T00:26:49.944Z,1.2
2018-07-03T00:28:50.148Z,1.2
2018-07-03T00:30:50.207Z,1.1
2018-07-03T00:32:50.345Z,1.3
2018-07-03T00:34:49.565Z,1.3
2018-07-03T00:36:49.778Z,1.2
2018-07-03T00:38:49.819Z,1.2
2018-07-03T00:40:49.849Z,1.5
2018-07-03T00:42:49.965Z,1.3
2018-07-03T00:44:50.038Z,1.3
2018-07-03T00:46:50.246Z,1.3
2018-07-03T00:48:50.361Z,1.3
2018-07-03T00:50:50.403Z,1.3
2018-07-03T00:52:50.468Z,1.1
2018-07-03T00:54:49.539Z,1.3
2018-07-03T00:56:49.789Z,1.3
2018-07-03T00:58:50.115Z,1.3
2018-07-03T01:00:50.175Z,1.3
2018-07-03T01:02:50.309Z,1.3
2018-07-03T01:04:49.633Z,1.0
2018-07-03T01:06:49.763Z,1.4
2018-07-03T01:08:49.865Z,1.4
2018-07-03T01:10:49.982Z,1.3
2018-07-03T01:12:50.086Z,1.3
2018-07-03T01:14:50.247Z,1.2
2018-07-03T01:16:50.494Z,1.2
2018-07-03T01:18:49.540Z,1.2
2018-07-03T01:20:49.672Z,1.1
2018-07-03T01:22:49.705Z,1.1
2018-07-03T01:24:49.774Z,1.2
2018-07-03T01:26:50.041Z,1.2
2018-07-03T01:28:50.318Z,1.3
2018-07-03T01:30:49.642Z,1.3
2018-07-03T01:32:49.675Z,1.5
2018-07-03T01:34:50.021Z,1.5
2018-07-03T01:36:50.319Z,1.3
2018-07-03T01:38:50.394Z,1.3
2018-07-03T01:40:49.570Z,1.3
2018-07-03T01:42:49.642Z,1.3
2018-07-03T01:44:49.714Z,1.3
2018-07-03T01:46:49.888Z,1.3
2018-07-03T01:48:50.024Z,1.5
2018-07-03T01:50:50.115Z,1.2
2018-07-03T01:52:50.293Z,1.2
2018-07-03T01:54:50.321Z,1.3
2018-07-03T01:56:49.581Z,1.6
2018-07-03T01:58:49.616Z,1.4
2018-07-03T02:00:49.701Z,1.5
2018-07-03T02:02:49.765Z,1.4
2018-07-03T02:04:50.021Z,1.4
2018-07-03T02:06:50.223Z,1.5
2018-07-03T02:08:50.308Z,1.3
2018-07-03T02:10:50.335Z,1.3
2018-07-03T02:12:50.416Z,1.4
2018-07-03T02:14:50.469Z,1.4
2018-07-03T02:16:49.747Z,1.4
2018-07-03T02:18:49.918Z,1.6
2018-07-03T02:20:49.984Z,1.2
2018-07-03T02:22:50.098Z,1.2
2018-07-03T02:24:50.171Z,1.2
2018-07-03T02:26:50.487Z,1.2
2018-07-03T02:28:49.567Z,1.3
2018-07-03T02:30:49.661Z,1.5
2018-07-03T02:32:49.821Z,1.5
2018-07-03T02:34:50.328Z,1.4
2018-07-03T02:36:49.626Z,1.4
2018-07-03T02:38:49.764Z,1.3
2018-07-03T02:40:49.955Z,1.3
2018-07-03T02:42:50.134Z,1.6
2018-07-03T02:44:50.222Z,1.5
2018-07-03T02:46:49.609Z,1.5
2018-07-03T02:48:49.724Z,1.5
2018-07-03T02:50:49.885Z,1.3
2018-07-03T02:52:50.049Z,1.3
2018-07-03T02:54:50.143Z,1.4
2018-07-03T02:56:50.407Z,1.4
2018-07-03T02:58:50.512Z,1.5
2018-07-03T03:00:49.610Z,1.5
2018-07-03T03:02:49.784Z,1.5
2018-07-03T03:04:50.042Z,1.5
2018-07-03T03:06:50.178Z,1.8
2018-07-03T03:08:50.326Z,1.4
2018-07-03T03:10:50.455Z,1.4
2018-07-03T03:12:49.605Z,1.4
2018-07-03T03:14:49.737Z,1.3
2018-07-03T03:16:50.089Z,1.6
2018-07-03T03:18:50.176Z,1.5
2018-07-03T03:20:50.234Z,1.5
2018-07-03T03:22:50.313Z,1.6
2018-07-03T03:24:50.344Z,1.5
2018-07-03T03:26:49.579Z,1.5
2018-07-03T03:28:49.625Z,1.6
2018-07-03T03:30:49.747Z,1.6
2018-07-03T03:32:49.962Z,1.6
2018-07-03T03:34:50.357Z,1.5
2018-07-03T03:36:49.715Z,1.8
2018-07-03T03:38:49.793Z,1.7
2018-07-03T03:40:49.969Z,1.7
2018-07-03T03:42:50.046Z,1.7
2018-07-03T03:44:50.103Z,1.7
2018-07-03T03:46:50.392Z,1.6
2018-07-03T03:48:50.433Z,1.6
2018-07-03T03:50:50.498Z,1.6
2018-07-03T03:52:49.543Z,1.6
2018-07-03T03:54:49.641Z,1.4
2018-07-03T03:56:49.844Z,1.9
2018-07-03T03:58:49.861Z,1.7
2018-07-03T04:00:50.112Z,1.7
2018-07-03T04:02:50.467Z,1.7
2018-07-03T04:04:49.839Z,2.0
2018-07-03T04:06:50.066Z,2.0
2018-07-03T04:08:50.139Z,1.6
2018-07-03T04:10:50.266Z,1.6
2018-07-03T04:12:50.404Z,1.8
2018-07-03T04:14:49.592Z,1.8
2018-07-03T04:16:49.789Z,1.6
2018-07-03T04:18:49.813Z,1.6
2018-07-03T04:20:49.964Z,1.8
2018-07-03T04:22:50.094Z,1.6
2018-07-03T04:24:50.163Z,1.6
2018-07-03T04:26:50.288Z,1.7
2018-07-03T04:28:50.365Z,1.8
2018-07-03T04:30:49.567Z,1.8
2018-07-03T04:32:49.663Z,1.8
2018-07-03T04:34:49.914Z,1.8
2018-07-03T04:36:50.113Z,2.0
2018-07-03T04:38:50.203Z,1.8
2018-07-03T04:40:50.355Z,1.9
2018-07-03T04:42:50.423Z,1.8
2018-07-03T04:44:49.625Z,1.9
2018-07-03T04:46:49.960Z,2.2
2018-07-03T04:48:50.337Z,2.2
2018-07-03T04:50:50.482Z,1.9
2018-07-03T04:52:49.636Z,1.5
2018-07-03T04:54:49.705Z,1.7
2018-07-03T04:56:49.908Z,1.7
2018-07-03T04:58:50.143Z,2.1
2018-07-03T05:00:50.246Z,1.8
2018-07-03T05:02:50.426Z,1.8
2018-07-03T05:04:50.005Z,1.8
2018-07-03T05:06:50.327Z,1.9
2018-07-03T05:08:50.451Z,1.8
2018-07-03T05:10:49.591Z,1.8
2018-07-03T05:12:49.762Z,1.8
2018-07-03T05:14:49.848Z,1.7
2018-07-03T05:16:50.247Z,2.0
2018-07-03T05:18:50.428Z,2.2
2018-07-03T05:20:49.584Z,1.9
2018-07-03T05:22:49.810Z,1.9
2018-07-03T05:24:49.913Z,1.8
2018-07-03T05:26:50.101Z,1.8
2018-07-03T05:28:50.132Z,1.8
2018-07-03T05:30:50.179Z,1.7
2018-07-03T05:32:50.479Z,1.5
2018-07-03T05:34:49.691Z,1.9
2018-07-03T05:36:49.754Z,1.9
2018-07-03T05:38:49.820Z,2.0
2018-07-03T05:40:49.914Z,2.0
2018-07-03T05:42:50.029Z,2.4
2018-07-03T05:44:50.402Z,2.4
2018-07-03T05:46:49.625Z,2.4
2018-07-03T05:48:49.782Z,2.5
2018-07-03T05:50:49.891Z,2.1
2018-07-03T05:52:50.028Z,2.1
2018-07-03T05:54:50.114Z,2.1
2018-07-03T05:56:50.372Z,2.4
2018-07-03T05:58:49.539Z,2.0
2018-07-03T06:00:49.797Z,1.9
2018-07-03T06:02:49.873Z,2.1
2018-07-03T06:04:50.146Z,2.1
2018-07-03T06:06:50.479Z,1.7
2018-07-03T06:08:49.541Z,1.8
2018-07-03T06:10:49.605Z,2.3
2018-07-03T06:12:49.742Z,1.5
2018-07-03T06:14:50.323Z,1.5
2018-07-03T06:16:49.720Z,1.7
2018-07-03T06:18:49.915Z,2.0
2018-07-03T06:20:50.098Z,1.7
2018-07-03T06:22:50.443Z,1.7
2018-07-03T06:24:50.079Z,1.5
2018-07-03T06:26:50.244Z,1.7
2018-07-03T06:28:50.633Z,1.4
2018-07-03T06:30:50.139Z,1.4
2018-07-03T06:32:50.238Z,1.5
2018-07-03T06:34:50.059Z,1.5
2018-07-03T06:36:49.672Z,1.6
2018-07-03T06:38:49.881Z,1.6
2018-07-03T06:40:49.974Z,1.5
2018-07-03T06:42:50.112Z,1.6
2018-07-03T06:44:50.296Z,1.6
2018-07-03T06:46:49.779Z,1.7
2018-07-03T06:48:49.889Z,1.7
2018-07-03T06:50:50.014Z,1.5
2018-07-03T06:52:50.267Z,1.5
2018-07-03T06:54:49.868Z,2.3
2018-07-03T06:56:50.075Z,1.8
2018-07-03T06:58:50.125Z,2.1
2018-07-03T07:00:49.919Z,2.1
2018-07-03T07:02:50.050Z,2.1
2018-07-03T07:04:50.264Z,1.5
2018-07-03T07:06:50.452Z,1.7
2018-07-03T07:08:49.849Z,1.7
2018-07-03T07:10:50.287Z,1.5
2018-07-03T07:12:50.420Z,1.5
2018-07-03T07:14:50.482Z,1.5
2018-07-03T07:16:49.684Z,1.3
2018-07-03T07:18:50.028Z,1.1
2018-07-03T07:20:50.130Z,1.1
2018-07-03T07:22:50.409Z,1.2
2018-07-03T07:24:49.613Z,1.3
2018-07-03T07:26:49.820Z,1.4
2018-07-03T07:28:49.936Z,1.3
2018-07-03T07:30:50.106Z,1.3
2018-07-03T07:32:50.254Z,1.3
2018-07-03T07:34:49.538Z,1.2
2018-07-03T07:36:49.820Z,1.3
2018-07-03T07:38:50.027Z,1.5
2018-07-03T07:40:50.144Z,1.5
2018-07-03T07:42:50.440Z,1.4
2018-07-03T07:44:50.531Z,1.1
2018-07-03T07:46:49.843Z,1.1
2018-07-03T07:48:50.066Z,1.2
2018-07-03T07:50:50.175Z,1.2
2018-07-03T07:52:50.242Z,1.3
2018-07-03T07:54:50.466Z,1.3
2018-07-03T07:56:50.133Z,1.3
2018-07-03T07:58:50.237Z,1.3
2018-07-03T08:00:50.352Z,2.0
2018-07-03T08:02:49.614Z,1.5
2018-07-03T08:04:49.997Z,1.3
2018-07-03T08:06:50.452Z,1.2
2018-07-03T08:08:49.568Z,1.2
2018-07-03T08:10:49.690Z,1.1
2018-07-03T08:12:49.745Z,1.3
2018-07-03T08:14:49.900Z,1.3
2018-07-03T08:16:50.076Z,1.3
2018-07-03T08:18:50.191Z,1.3
2018-07-03T08:20:50.200Z,1.0
2018-07-03T08:22:50.237Z,1.3
2018-07-03T08:24:50.333Z,1.3
2018-07-03T08:26:49.548Z,1.2
2018-07-03T08:28:49.633Z,1.4
2018-07-03T08:30:49.793Z,1.4
2018-07-03T08:32:50.061Z,1.3
2018-07-03T08:34:50.358Z,1.5
2018-07-03T08:36:49.540Z,1.2
2018-07-03T08:38:49.659Z,1.2
2018-07-03T08:40:50.015Z,1.3
2018-07-03T08:42:50.187Z,1.3
2018-07-03T08:44:49.675Z,1.2
2018-07-03T08:46:49.833Z,1.2
2018-07-03T08:48:49.888Z,1.3
2018-07-03T08:50:50.293Z,1.2
2018-07-03T08:52:50.347Z,2.9
2018-07-03T08:54:50.446Z,2.9
2018-07-03T08:56:49.553Z,1.1
2018-07-03T08:58:49.613Z,1.5
2018-07-03T09:00:49.799Z,1.1
2018-07-03T09:02:50.226Z,1.2
2018-07-03T09:04:49.521Z,1.3
2018-07-03T09:06:49.637Z,1.3
2018-07-03T09:08:49.718Z,1.3
2018-07-03T09:10:49.853Z,1.3
2018-07-03T09:12:49.910Z,1.1
2018-07-03T09:14:50.063Z,1.5
2018-07-03T09:16:50.374Z,1.5
2018-07-03T09:18:50.481Z,1.2
2018-07-03T09:20:49.606Z,1.1
2018-07-03T09:22:49.700Z,1.3
2018-07-03T09:24:49.821Z,1.1
2018-07-03T09:26:49.973Z,1.1
2018-07-03T09:28:50.050Z,1.2
2018-07-03T09:30:50.177Z,1.3
2018-07-03T09:32:50.230Z,1.3
2018-07-03T09:34:49.572Z,1.2
2018-07-03T09:36:49.885Z,1.0
2018-07-03T09:38:49.947Z,1.0
2018-07-03T09:40:50.005Z,1.2
2018-07-03T09:42:50.198Z,1.2
2018-07-03T09:44:50.316Z,1.1
2018-07-03T09:46:49.760Z,1.1
2018-07-03T09:48:49.945Z,1.6
2018-07-03T09:50:50.522Z,1.3
2018-07-03T09:52:49.702Z,1.3
2018-07-03T09:54:50.072Z,1.3
2018-07-03T09:56:50.244Z,1.3
2018-07-03T09:58:50.450Z,1.3
2018-07-03T10:00:49.603Z,1.2
2018-07-03T10:02:50.096Z,1.4
2018-07-03T10:04:50.451Z,1.2
2018-07-03T10:06:49.698Z,1.2
2018-07-03T10:08:49.814Z,1.1
2018-07-03T10:10:49.898Z,1.2
2018-07-03T10:12:50.180Z,1.2
2018-07-03T10:14:50.308Z,1.4
2018-07-03T10:16:49.568Z,1.2
2018-07-03T10:18:49.696Z,1.1
2018-07-03T10:20:50.206Z,1.2
2018-07-03T10:22:50.241Z,1.2
2018-07-03T10:24:50.458Z,1.2
2018-07-03T10:26:49.789Z,1.3
2018-07-03T10:28:49.873Z,1.3
2018-07-03T10:30:50.098Z,1.1
2018-07-03T10:32:50.205Z,1.3
2018-07-03T10:34:49.777Z,1.3
2018-07-03T10:36:50.015Z,1.3
2018-07-03T10:38:50.121Z,1.2
2018-07-03T10:40:50.215Z,1.5
2018-07-03T10:42:50.303Z,1.1
2018-07-03T10:44:50.522Z,1.1
2018-07-03T10:46:49.697Z,1.3
2018-07-03T10:48:49.877Z,1.3
2018-07-03T10:50:50.466Z,1.1
2018-07-03T10:52:49.561Z,1.3
2018-07-03T10:54:49.778Z,1.3
2018-07-03T10:56:50.039Z,1.4
2018-07-03T10:58:50.113Z,2.5
2018-07-03T11:00:50.228Z,1.4
2018-07-03T11:02:50.367Z,1.4
2018-07-03T11:04:49.797Z,1.2
2018-07-03T11:06:49.911Z,1.2
2018-07-03T11:08:50.152Z,1.2
2018-07-03T11:10:50.284Z,1.3
2018-07-03T11:12:50.410Z,1.3
2018-07-03T11:14:50.508Z,1.3
2018-07-03T11:16:49.728Z,1.9
2018-07-03T11:18:49.876Z,1.9
2018-07-03T11:20:49.933Z,2.6
2018-07-03T11:22:50.074Z,1.8
2018-07-03T11:24:50.281Z,1.2
2018-07-03T11:26:50.532Z,1.3
2018-07-03T11:28:49.687Z,1.3
2018-07-03T11:30:49.957Z,1.1
2018-07-03T11:32:50.021Z,1.1
2018-07-03T11:34:50.314Z,1.6
2018-07-03T11:36:50.536Z,1.5
2018-07-03T11:38:49.605Z,1.5
2018-07-03T11:40:49.684Z,2.7
2018-07-03T11:42:49.800Z,2.7
2018-07-03T11:44:50.014Z,1.2
2018-07-03T11:46:49.762Z,1.2
2018-07-03T11:48:49.820Z,1.1
2018-07-03T11:50:50.074Z,1.3
2018-07-03T11:52:50.272Z,1.3
2018-07-03T11:54:50.377Z,1.1
2018-07-03T11:56:49.614Z,1.2
2018-07-03T11:58:49.674Z,1.1
2018-07-03T12:00:49.776Z,1.2
2018-07-03T12:02:49.891Z,1.2
2018-07-03T12:04:50.332Z,1.1
2018-07-03T12:06:50.501Z,1.3
2018-07-03T12:08:49.580Z,1.2
2018-07-03T12:10:49.736Z,1.2
2018-07-03T12:12:50.069Z,1.1
2018-07-03T12:14:50.141Z,1.2
2018-07-03T12:16:50.318Z,1.3
2018-07-03T12:18:50.393Z,1.1
2018-07-03T12:20:50.358Z,1.1
2018-07-03T12:22:50.460Z,1.2
2018-07-03T12:24:49.597Z,1.1
2018-07-03T12:26:49.743Z,1.0
2018-07-03T12:28:49.871Z,1.0
2018-07-03T12:30:50.376Z,1.3
2018-07-03T12:32:49.514Z,1.3
2018-07-03T12:34:49.923Z,1.2
2018-07-03T12:36:50.073Z,1.3
2018-07-03T12:38:50.142Z,1.3
2018-07-03T12:40:50.267Z,1.1
2018-07-03T12:42:50.344Z,1.1
2018-07-03T12:44:49.542Z,1.2
2018-07-03T12:46:49.661Z,1.1
2018-07-03T12:48:49.672Z,1.1
2018-07-03T12:50:49.732Z,1.1
2018-07-03T12:52:49.850Z,1.2
2018-07-03T12:54:49.898Z,1.1
2018-07-03T12:56:50.217Z,1.1
2018-07-03T12:58:50.313Z,1.0
2018-07-03T13:00:49.586Z,1.0
2018-07-03T13:02:49.860Z,1.1
2018-07-03T13:04:50.312Z,1.1
2018-07-03T13:06:50.531Z,1.2
2018-07-03T13:08:49.600Z,1.2
2018-07-03T13:10:49.674Z,1.2
2018-07-03T13:12:49.736Z,1.3
2018-07-03T13:14:49.871Z,1.3
2018-07-03T13:16:50.067Z,1.3
2018-07-03T13:18:50.174Z,1.3
2018-07-03T13:20:50.411Z,1.2
2018-07-03T13:22:50.516Z,1.1
2018-07-03T13:24:49.615Z,1.3
2018-07-03T13:26:49.837Z,1.3
2018-07-03T13:28:49.905Z,5.3
2018-07-03T13:30:50.052Z,1.3
2018-07-03T13:32:50.167Z,1.1
2018-07-03T13:34:49.789Z,1.3
2018-07-03T13:36:49.932Z,1.1
2018-07-03T13:38:50.194Z,1.1
2018-07-03T13:40:50.300Z,1.1
2018-07-03T13:42:50.387Z,1.2
2018-07-03T13:44:50.521Z,1.1
2018-07-03T13:46:49.749Z,1.1
2018-07-03T13:48:49.790Z,1.3
2018-07-03T13:50:49.895Z,1.1
2018-07-03T13:52:49.996Z,1.2
2018-07-03T13:54:50.079Z,1.2
2018-07-03T13:56:50.261Z,1.2
2018-07-03T13:58:50.416Z,1.3
2018-07-03T14:00:50.472Z,1.2
2018-07-03T14:02:49.535Z,1.1
2018-07-03T14:04:49.952Z,1.1
2018-07-03T14:06:50.152Z,1.1
2018-07-03T14:08:50.292Z,1.1
2018-07-03T14:10:49.833Z,1.1
2018-07-03T14:12:49.910Z,1.1
2018-07-03T14:14:50.068Z,1.1
2018-07-03T14:16:50.273Z,1.1
2018-07-03T14:18:50.332Z,1.0
2018-07-03T14:20:50.390Z,1.1
2018-07-03T14:22:50.522Z,1.1
2018-07-03T14:24:49.630Z,1.1
2018-07-03T14:26:49.796Z,1.1
2018-07-03T14:28:49.885Z,1.0
2018-07-03T14:30:49.980Z,1.5
2018-07-03T14:32:50.099Z,1.0
2018-07-03T14:34:50.441Z,1.0
2018-07-03T14:36:49.734Z,1.2
2018-07-03T14:38:49.807Z,1.5
2018-07-03T14:40:49.909Z,1.2
2018-07-03T14:42:49.969Z,1.2
2018-07-03T14:44:50.246Z,1.2
2018-07-03T14:46:50.435Z,1.2
2018-07-03T14:48:49.738Z,1.0
2018-07-03T14:50:49.774Z,1.0
2018-07-03T14:52:49.838Z,1.0
2018-07-03T14:54:49.871Z,1.0
2018-07-03T14:56:50.052Z,1.4
2018-07-03T14:58:50.239Z,1.3
2018-07-03T15:00:50.310Z,1.4
2018-07-03T15:02:50.456Z,1.4
2018-07-03T15:04:49.768Z,1.2
2018-07-03T15:06:50.067Z,1.4
2018-07-03T15:08:50.158Z,1.2
2018-07-03T15:10:50.203Z,1.1
2018-07-03T15:12:50.252Z,1.1
2018-07-03T15:14:50.441Z,1.1
2018-07-03T15:16:49.867Z,1.2
2018-07-03T15:18:49.904Z,1.3
2018-07-03T15:20:50.020Z,1.1
2018-07-03T15:22:50.042Z,1.1
2018-07-03T15:24:50.128Z,1.1
2018-07-03T15:26:50.362Z,1.3
2018-07-03T15:28:49.540Z,1.3
2018-07-03T15:30:49.707Z,1.0
2018-07-03T15:32:49.814Z,1.1
2018-07-03T15:34:50.384Z,1.2
2018-07-03T15:36:49.593Z,1.1
2018-07-03T15:38:49.631Z,1.1
2018-07-03T15:40:49.717Z,1.0
2018-07-03T15:42:49.890Z,1.0
2018-07-03T15:44:49.965Z,0.8
2018-07-03T15:46:49.842Z,1.1
2018-07-03T15:48:49.919Z,1.1
2018-07-03T15:50:50.141Z,1.0
2018-07-03T15:52:50.230Z,1.0
2018-07-03T15:54:49.699Z,1.0
2018-07-03T15:56:49.868Z,1.0
2018-07-03T15:58:49.919Z,1.2
2018-07-03T16:00:50.007Z,1.2
2018-07-03T16:02:50.050Z,1.2
2018-07-03T16:04:50.339Z,1.0
2018-07-03T16:06:50.473Z,1.1
2018-07-03T16:08:50.452Z,1.7
2018-07-03T16:10:49.704Z,1.7
2018-07-03T16:12:49.747Z,1.0
2018-07-03T16:14:49.918Z,1.2
2018-07-03T16:16:50.028Z,1.0
2018-07-03T16:18:50.161Z,1.0
2018-07-03T16:20:50.231Z,1.2
2018-07-03T16:22:50.340Z,1.0
2018-07-03T16:24:50.502Z,1.0
2018-07-03T16:26:49.902Z,1.0
2018-07-03T16:28:50.092Z,1.1
2018-07-03T16:30:50.173Z,1.1
2018-07-03T16:32:50.376Z,1.5
2018-07-03T16:34:49.565Z,1.1
2018-07-03T16:36:49.860Z,1.1
2018-07-03T16:38:50.203Z,1.1
2018-07-03T16:40:50.017Z,1.1
2018-07-03T16:42:50.229Z,1.1
2018-07-03T16:44:50.308Z,1.2
2018-07-03T16:46:49.539Z,1.2
2018-07-03T16:48:49.560Z,1.4
2018-07-03T16:50:49.602Z,1.4
2018-07-03T16:52:50.008Z,1.1
2018-07-03T16:54:49.742Z,1.2
2018-07-03T16:56:49.926Z,1.2
2018-07-03T16:58:50.008Z,1.2
2018-07-03T17:00:50.270Z,1.2
2018-07-03T17:02:50.464Z,1.2
2018-07-03T17:04:49.841Z,1.2
2018-07-03T17:06:50.190Z,1.1
2018-07-03T17:08:50.243Z,1.2
2018-07-03T17:10:50.346Z,1.3
2018-07-03T17:12:50.390Z,1.2
2018-07-03T17:14:50.507Z,1.2
2018-07-03T17:16:49.908Z,1.2
2018-07-03T17:18:50.094Z,1.2
2018-07-03T17:20:50.157Z,1.2
2018-07-03T17:22:50.239Z,1.3
2018-07-03T17:24:50.277Z,1.4
2018-07-03T17:26:49.552Z,1.2
2018-07-03T17:28:49.756Z,1.2
2018-07-03T17:30:49.833Z,1.1
2018-07-03T17:32:49.865Z,1.3
2018-07-03T17:34:50.172Z,1.2
2018-07-03T17:36:49.609Z,1.6
2018-07-03T17:38:49.832Z,1.6
2018-07-03T17:40:50.119Z,1.1
2018-07-03T17:42:50.234Z,1.4
2018-07-03T17:44:49.612Z,1.3
2018-07-03T17:46:49.843Z,1.3
2018-07-03T17:48:49.988Z,1.1
2018-07-03T17:50:50.079Z,1.4
2018-07-03T17:52:50.171Z,1.1
2018-07-03T17:54:50.246Z,1.2
2018-07-03T17:56:50.432Z,1.2
2018-07-03T17:58:50.511Z,1.3
2018-07-03T18:00:49.613Z,1.4
2018-07-03T18:02:49.751Z,1.3
2018-07-03T18:04:50.040Z,1.2
2018-07-03T18:06:50.294Z,1.2
2018-07-03T18:08:50.477Z,1.4
2018-07-03T18:10:49.579Z,1.7
2018-07-03T18:12:49.675Z,1.7
2018-07-03T18:14:49.741Z,1.6
2018-07-03T18:16:49.923Z,1.3
2018-07-03T18:18:50.003Z,10.0
2018-07-03T18:20:50.181Z,3.8
2018-07-03T18:22:50.325Z,3.8
2018-07-03T18:24:50.411Z,1.8
2018-07-03T18:26:49.596Z,1.8
2018-07-03T18:28:49.645Z,1.6
2018-07-03T18:30:49.831Z,1.9
2018-07-03T18:32:49.891Z,1.5
2018-07-03T18:34:50.180Z,1.5
2018-07-03T18:36:49.592Z,1.6
2018-07-03T18:38:49.714Z,1.6
2018-07-03T18:40:49.781Z,1.6
2018-07-03T18:42:49.867Z,1.6
2018-07-03T18:44:49.942Z,1.6
2018-07-03T18:46:50.113Z,3.0
2018-07-03T18:48:50.225Z,2.3
2018-07-03T18:50:50.426Z,2.8
2018-07-03T18:52:49.549Z,2.8
2018-07-03T18:54:49.583Z,2.5
2018-07-03T18:56:49.787Z,2.3
2018-07-03T18:58:49.902Z,2.1
2018-07-03T19:00:50.100Z,2.1
2018-07-03T19:02:50.156Z,1.9
2018-07-03T19:04:49.585Z,1.9
2018-07-03T19:06:49.804Z,2.0
2018-07-03T19:08:49.856Z,3.5
2018-07-03T19:10:49.950Z,5.2
2018-07-03T19:12:50.094Z,4.2
2018-07-03T19:14:50.206Z,4.2
2018-07-03T19:16:50.444Z,2.9
2018-07-03T19:18:50.490Z,3.2
2018-07-03T19:20:49.598Z,3.5
2018-07-03T19:22:49.600Z,2.7
2018-07-03T19:24:49.643Z,2.7
2018-07-03T19:26:49.938Z,2.6
2018-07-03T19:28:50.048Z,2.9
2018-07-03T19:30:50.092Z,2.5
2018-07-03T19:32:50.190Z,2.5
2018-07-03T19:34:50.420Z,2.8
2018-07-03T19:36:49.672Z,2.4
2018-07-03T19:38:49.726Z,4.7
2018-07-03T19:40:49.765Z,3.8
2018-07-03T19:42:49.967Z,3.8
2018-07-03T19:44:50.233Z,3.1
2018-07-03T19:46:50.439Z,3.2
2018-07-03T19:48:49.593Z,3.0
2018-07-03T19:50:49.641Z,3.0
2018-07-03T19:52:49.793Z,4.7
2018-07-03T19:54:49.935Z,5.2
2018-07-03T19:56:50.095Z,4.7
2018-07-03T19:58:50.116Z,3.9
2018-07-03T20:00:50.220Z,3.9
2018-07-03T20:02:50.270Z,2.7
2018-07-03T20:04:49.845Z,2.7
2018-07-03T20:06:50.151Z,2.7
2018-07-03T20:08:50.206Z,2.9
2018-07-03T20:10:50.314Z,2.9
2018-07-03T20:12:50.418Z,2.9
2018-07-03T20:14:49.518Z,3.0
2018-07-03T20:16:49.815Z,2.7
2018-07-03T20:18:50.104Z,2.7
2018-07-03T20:20:49.719Z,2.7
2018-07-03T20:22:49.795Z,2.5
2018-07-03T20:24:50.184Z,2.5
2018-07-03T20:26:49.611Z,2.6
2018-07-03T20:28:49.658Z,2.6
2018-07-03T20:30:49.777Z,2.6
2018-07-03T20:32:49.856Z,2.6
2018-07-03T20:34:50.210Z,2.8
2018-07-03T20:36:50.443Z,2.8
2018-07-03T20:38:49.700Z,3.0
2018-07-03T20:40:49.831Z,3.2
2018-07-03T20:42:49.891Z,3.2
2018-07-03T20:44:50.294Z,2.7
2018-07-03T20:46:50.485Z,2.9
2018-07-03T20:48:49.573Z,2.9
2018-07-03T20:50:49.677Z,2.8
2018-07-03T20:52:50.051Z,2.8
2018-07-03T20:54:50.191Z,2.5
2018-07-03T20:56:50.315Z,2.6
2018-07-03T20:58:50.454Z,2.6
2018-07-03T21:00:49.597Z,2.8
2018-07-03T21:02:49.783Z,2.3
2018-07-03T21:04:50.118Z,2.3
2018-07-03T21:06:50.363Z,2.5
2018-07-03T21:08:49.587Z,2.5
2018-07-03T21:10:49.680Z,2.3
2018-07-03T21:12:49.962Z,2.3
2018-07-03T21:14:50.096Z,2.2
2018-07-03T21:16:50.460Z,2.2
2018-07-03T21:18:50.241Z,2.3
2018-07-03T21:20:50.331Z,2.1
2018-07-03T21:22:50.429Z,2.6
2018-07-03T21:24:50.488Z,2.6
2018-07-03T21:26:49.722Z,2.4
2018-07-03T21:28:49.809Z,2.4
2018-07-03T21:30:49.891Z,2.6
2018-07-03T21:32:50.138Z,2.3
2018-07-03T21:34:50.436Z,2.1
2018-07-03T21:36:49.621Z,2.2
2018-07-03T21:38:49.828Z,2.2
2018-07-03T21:40:49.571Z,2.2
2018-07-03T21:42:49.681Z,2.2
2018-07-03T21:44:49.823Z,2.2
2018-07-03T21:46:49.999Z,2.0
2018-07-03T21:48:50.213Z,2.0
2018-07-03T21:50:50.281Z,2.2
2018-07-03T21:52:49.585Z,2.0
2018-07-03T21:54:49.744Z,2.4
2018-07-03T21:56:50.098Z,2.4
2018-07-03T21:58:50.185Z,2.6
2018-07-03T22:00:50.386Z,2.7
2018-07-03T22:02:50.505Z,3.4
2018-07-03T22:04:49.726Z,3.4
2018-07-03T22:06:49.920Z,3.1
2018-07-03T22:08:50.018Z,3.8
2018-07-03T22:10:50.131Z,2.8
2018-07-03T22:12:50.233Z,2.8
2018-07-03T22:14:50.374Z,2.9
2018-07-03T22:16:50.022Z,2.9
2018-07-03T22:18:50.164Z,2.3
2018-07-03T22:20:50.273Z,2.3
2018-07-03T22:22:50.417Z,2.4
2018-07-03T22:24:49.606Z,2.5
2018-07-03T22:26:49.896Z,2.5
2018-07-03T22:28:49.970Z,2.7
2018-07-03T22:30:50.072Z,2.2
2018-07-03T22:32:50.196Z,2.3
2018-07-03T22:34:50.513Z,2.6
2018-07-03T22:36:49.790Z,2.6
2018-07-03T22:38:50.107Z,2.4
2018-07-03T22:40:50.331Z,2.6
2018-07-03T22:42:50.393Z,2.5
2018-07-03T22:44:49.608Z,2.5
2018-07-03T22:46:49.958Z,2.4
2018-07-03T22:48:50.026Z,2.3
2018-07-03T22:50:50.104Z,2.3
2018-07-03T22:52:50.396Z,2.5
2018-07-03T22:54:49.820Z,2.5
2018-07-03T22:56:49.895Z,2.3
2018-07-03T22:58:49.932Z,2.4
2018-07-03T23:00:50.007Z,2.4
2018-07-03T23:02:50.098Z,2.1
2018-07-03T23:04:50.360Z,2.1
2018-07-03T23:06:49.630Z,2.3
2018-07-03T23:08:49.865Z,2.2
2018-07-03T23:10:50.110Z,2.1
2018-07-03T23:12:50.239Z,2.1
2018-07-03T23:14:50.360Z,2.1
2018-07-03T23:16:49.614Z,2.5
2018-07-03T23:18:49.749Z,2.3
2018-07-03T23:20:49.821Z,2.3
2018-07-03T23:22:49.870Z,2.3
2018-07-03T23:24:49.982Z,2.3
2018-07-03T23:26:50.405Z,2.1
2018-07-03T23:28:50.489Z,2.2
2018-07-03T23:30:49.591Z,2.2
2018-07-03T23:32:49.684Z,2.2
2018-07-03T23:34:49.972Z,2.4
2018-07-03T23:36:50.313Z,2.2
2018-07-03T23:38:49.624Z,2.2
2018-07-03T23:40:49.715Z,2.1
2018-07-03T23:42:49.929Z,2.1
2018-07-03T23:44:50.125Z,2.2
2018-07-03T23:46:50.473Z,2.1
2018-07-03T23:48:49.638Z,2.4
2018-07-03T23:50:49.718Z,2.4
2018-07-03T23:52:49.762Z,2.2
2018-07-03T23:54:49.888Z,2.7
2018-07-03T23:56:50.401Z,2.4
2018-07-03T23:58:50.190Z,2.2
